ADDS METAR Data INFO
IDs: Format: Raw Decoded Include TAF

Data at: 1519 UTC 23 Oct 2017

KPBI 231453Z 14014G20KT 10SM SCT024 SCT037 SCT230 29/24 A3008 RMK AO2 SLP184 T02890239 50004
KPBI 231353Z 14015KT 10SM SCT023 SCT035 SCT230 28/24 A3008 RMK AO2 SLP185 T02830239
KPBI 231253Z 15014KT 10SM SCT025 SCT034 SCT230 27/23 A3007 RMK AO2 SLP183 T02720233
KPBI 231153Z 15010KT 10SM SCT023 SCT030 SCT200 27/23 A3006 RMK AO2 SLP180 60000 70006 T02670233 10278 20267 53007
KPBI 231053Z 13012KT 10SM SCT022TCU SCT200 27/23 A3005 RMK AO2 SLP177 TCU NE-S AND OHD T02670233
KPBI 230953Z 13012KT 10SM SCT025 SCT250 27/23 A3005 RMK AO2 SLP174 T02670233
KPBI 230853Z 13014KT 10SM FEW025 FEW050 SCT250 27/23 A3004 RMK AO2 SLP173 60000 T02670233 58012
KPBI 230753Z 13016KT 10SM FEW025 FEW040 BKN080 27/23 A3006 RMK AO2 RAB34E47 SLP179 TCU DSNT N-NE P0000 T02670233
KPBI 230653Z 13012KT 10SM SCT024TCU BKN043 BKN250 27/23 A3007 RMK AO2 SLP180 TCU SW AND NW T02720233
KPBI 230553Z 13013KT 10SM SCT024 SCT029 BKN043 27/23 A3008 RMK AO2 SLP185 T02720233 10278 20272 58007
KPBI 230453Z 12011KT 10SM SCT029 SCT046 BKN060 27/23 A3009 RMK AO2 SLP188 T02720233 403060261
KPBI 230353Z 12014KT 10SM SCT028 SCT033 BKN250 27/23 A3010 RMK AO2 SLP192 T02720228
KPBI 230253Z 12013KT 10SM SCT020 SCT045 BKN200 27/23 A3010 RMK AO2 SLP192 T02720228 50004
KPBI 230153Z 12014KT 10SM SCT025 SCT045 BKN200 28/23 A3011 RMK AO2 SLP194 T02780228
KPBI 230053Z 13013KT 10SM SCT025 BKN200 28/23 A3009 RMK AO2 SLP190 T02780228
KPBI 222353Z 12010KT 10SM SCT024 BKN200 28/23 A3009 RMK AO2 SLP188 T02780228 10306 20278 53005
KPBI 222253Z 12011KT 10SM SCT025 BKN200 28/22 A3008 RMK AO2 SLP186 T02780222
KPBI 222153Z 12013KT 10SM SCT024 BKN160 BKN200 28/22 A3008 RMK AO2 SLP184 T02830222
KPBI 222053Z 11017KT 10SM SCT025 BKN160 BKN200 29/23 A3007 RMK AO2 SLP183 T02890228 56009
KPBI 221953Z 13014KT 10SM SCT025 BKN200 29/23 A3008 RMK AO2 SLP185 T02940228
KPBI 221853Z 12018KT 10SM SCT027 BKN210 30/23 A3008 RMK AO2 SLP186 CB DSNT NE T03000233
KPBI 221753Z 11017KT 10SM SCT025 SCT044 BKN210 30/24 A3010 RMK AO2 SLP192 60006 T03000239 10300 20261 58012
KPBI 221710Z 13016G23KT 10SM SCT028 SCT070 BKN250 29/24 A3012 RMK AO2 CB DSNT N T02890244 $
KPBI 221653Z 11016KT 10SM BKN025 BKN080 BKN250 28/24 A3012 RMK AO2 LTG DSNT N RAE38 SLP199 CB DSNT N P0006 T02830244 $
KPBI 221553Z 13015G25KT 7SM R10L/4000VP6000FT RA BKN022CB BKN040 BKN250 27/23 A3014 RMK AO2 RAB53 SLP207 CB OHD-NE-W MOV NW P0000 T02670228 $
KPBI 221542Z 12019KT 10SM BKN022CB BKN080 BKN250 29/24 A3014 RMK AO2 CB E-SW MOV NW T02940239 $
KPBI 221453Z 12017G26KT 10SM SCT022 SCT075 BKN250 29/23 A3013 RMK AO2 PK WND 10026/1447 SLP204 TCU DSNT NE-E T02940233 51014 $
KPBI 221353Z 12018KT 10SM SCT021CB BKN050 BKN250 27/23 A3013 RMK AO2 SLP201 CB OHD-SW-N MOV NW T02720233 $
KPBI 221253Z 11014KT 10SM SCT022 SCT046 BKN250 28/23 A3012 RMK AO2 SLP199 T02780233 $
KPBI 221153Z 11011KT 10SM SCT023 SCT050 BKN250 27/23 A3009 RMK AO2 SLP190 60012 70023 T02720233 10272 20261 53012 $
KPBI 221053Z 11012KT 10SM SCT025 SCT250 27/23 A3008 RMK AO2 SLP186 T02670233 $
KPBI 220953Z 11013KT 10SM SCT024 BKN250 27/24 A3006 RMK AO2 SLP179 T02670239 $
KPBI 220853Z 11012KT 10SM FEW021 SCT040 BKN250 27/24 A3006 RMK AO2 SLP178 60012 T02720239 55007 $
KPBI 220753Z 11013KT 10SM SCT023 BKN100 27/24 A3005 RMK AO2 SLP176 T02670244 $
KPBI 220653Z 10010KT 10SM FEW021TCU FEW047 SCT060 27/25 A3007 RMK AO2 RAE04 SLP181 TCU S-W P0012 T02670250 $
KPBI 220553Z 12006KT 7SM R10L/3500VP6000FT -RA SCT021 BKN032 BKN085 27/25 A3008 RMK AO2 RAB15 SLP185 60000 T02670250 10278 20267 58014 PNO $
KPBI 220453Z 09013KT 10SM SCT021 BKN034 27/24 A3010 RMK AO2 SLP191 T02720244 402940244 $
KPBI 220353Z 10016KT 10SM SCT018 SCT028 BKN065 27/24 A3011 RMK AO2 SLP195 T02720244 $